createdAt,value
2023-05-20T00:00:53.170Z,0.00
2023-05-20T00:01:53.129Z,0.00
2023-05-20T00:02:53.216Z,0.00
2023-05-20T00:03:53.316Z,0.00
2023-05-20T00:04:53.122Z,0.00
2023-05-20T00:05:53.083Z,0.00
2023-05-20T00:06:53.100Z,0.00
2023-05-20T00:07:53.120Z,0.00
2023-05-20T00:08:53.124Z,0.00
2023-05-20T00:09:53.050Z,0.00
2023-05-20T00:10:53.056Z,0.00
2023-05-20T00:11:53.034Z,0.00
2023-05-20T00:12:52.999Z,0.00
2023-05-20T00:13:53.002Z,0.00
2023-05-20T00:14:53.936Z,0.00
2023-05-20T00:15:52.991Z,0.00
2023-05-20T00:16:52.999Z,0.00
2023-05-20T00:17:52.974Z,0.00
2023-05-20T00:18:52.988Z,0.00
2023-05-20T00:19:52.946Z,0.00
2023-05-20T00:20:52.934Z,0.00
2023-05-20T00:21:52.927Z,0.00
2023-05-20T00:22:52.880Z,0.00
2023-05-20T00:23:52.930Z,0.00
2023-05-20T00:24:52.876Z,0.00
2023-05-20T00:25:52.865Z,0.00
2023-05-20T00:26:52.955Z,0.00
2023-05-20T00:27:52.949Z,0.00
2023-05-20T00:28:52.845Z,0.00
2023-05-20T00:29:52.846Z,0.00
2023-05-20T00:30:52.856Z,0.00
2023-05-20T00:31:52.848Z,0.00
2023-05-20T00:32:52.859Z,0.00
2023-05-20T00:33:52.764Z,0.00
2023-05-20T00:34:52.754Z,0.00
2023-05-20T00:35:52.747Z,0.00
2023-05-20T00:36:52.726Z,0.00
2023-05-20T00:37:52.774Z,0.00
2023-05-20T00:38:52.686Z,0.00
2023-05-20T00:39:52.713Z,0.00
2023-05-20T00:40:52.782Z,0.00
2023-05-20T00:41:52.686Z,0.00
2023-05-20T00:42:52.646Z,0.00
2023-05-20T00:43:52.686Z,0.00
2023-05-20T00:44:52.630Z,0.00
2023-05-20T00:45:52.706Z,0.00
2023-05-20T00:46:52.619Z,0.00
2023-05-20T00:47:52.810Z,0.00
2023-05-20T00:48:52.698Z,0.00
2023-05-20T00:49:52.704Z,0.00
2023-05-20T00:50:52.556Z,0.00
2023-05-20T00:51:52.576Z,0.00
2023-05-20T00:52:52.512Z,0.00
2023-05-20T00:53:52.558Z,0.00
2023-05-20T00:54:52.519Z,0.00
2023-05-20T00:55:52.545Z,0.00
2023-05-20T00:56:52.740Z,0.00
2023-05-20T00:57:52.509Z,0.00
2023-05-20T00:58:52.456Z,0.00
2023-05-20T00:59:52.505Z,0.00
2023-05-20T01:00:52.447Z,0.00
2023-05-20T01:01:52.559Z,0.00
2023-05-20T01:02:52.538Z,0.00
2023-05-20T01:03:52.466Z,0.00
2023-05-20T01:04:52.393Z,0.00
2023-05-20T01:05:52.416Z,0.00
2023-05-20T01:06:52.353Z,0.00
2023-05-20T01:07:52.375Z,0.00
2023-05-20T01:08:52.360Z,0.00
2023-05-20T01:09:52.357Z,0.00
2023-05-20T01:10:52.308Z,0.00
2023-05-20T01:11:52.331Z,0.00
2023-05-20T01:12:52.348Z,0.00
2023-05-20T01:13:52.294Z,0.00
2023-05-20T01:14:52.296Z,0.00
2023-05-20T01:15:52.323Z,0.00
2023-05-20T01:16:52.244Z,0.00
2023-05-20T01:17:52.511Z,0.00
2023-05-20T01:18:52.266Z,0.00
2023-05-20T01:19:52.347Z,0.00
2023-05-20T01:20:52.236Z,0.00
2023-05-20T01:21:52.231Z,0.00
2023-05-20T01:22:52.190Z,0.00
2023-05-20T01:23:52.209Z,0.00
2023-05-20T01:24:52.155Z,0.00
2023-05-20T01:25:52.157Z,0.00
2023-05-20T01:26:52.140Z,0.00
2023-05-20T01:27:52.181Z,0.00
2023-05-20T01:28:52.111Z,0.00
2023-05-20T01:29:52.203Z,0.00
2023-05-20T01:30:52.198Z,0.00
2023-05-20T01:31:52.198Z,0.00
2023-05-20T01:32:52.171Z,0.00
2023-05-20T01:33:52.086Z,0.00
2023-05-20T01:34:52.044Z,0.00
2023-05-20T01:35:52.046Z,0.00
2023-05-20T01:36:52.046Z,0.00
2023-05-20T01:37:52.036Z,0.00
2023-05-20T01:38:51.983Z,0.00
2023-05-20T01:39:52.020Z,0.00
2023-05-20T01:40:51.990Z,0.00
2023-05-20T01:41:51.977Z,0.00
2023-05-20T01:42:51.952Z,0.00
2023-05-20T01:43:52.004Z,0.00
2023-05-20T01:44:51.912Z,0.00
2023-05-20T01:45:51.925Z,0.00
2023-05-20T01:46:51.937Z,0.00
2023-05-20T01:47:51.938Z,0.00
2023-05-20T01:48:51.886Z,0.00
2023-05-20T01:49:52.033Z,0.00
2023-05-20T01:50:51.984Z,0.00
2023-05-20T01:51:51.853Z,0.00
2023-05-20T01:52:51.834Z,0.00
2023-05-20T01:53:51.854Z,0.00
2023-05-20T01:54:51.871Z,0.00
2023-05-20T01:55:51.817Z,0.00
2023-05-20T01:56:51.789Z,0.00
2023-05-20T01:57:51.869Z,0.00
2023-05-20T01:58:51.798Z,0.00
2023-05-20T01:59:51.788Z,0.00
2023-05-20T02:00:51.793Z,0.00
2023-05-20T02:01:51.887Z,0.00
2023-05-20T02:02:51.747Z,0.00
2023-05-20T02:03:51.844Z,0.00
2023-05-20T02:04:51.689Z,0.00
2023-05-20T02:05:51.778Z,0.00
2023-05-20T02:06:51.664Z,0.00
2023-05-20T02:07:51.682Z,0.00
2023-05-20T02:08:51.637Z,0.00
2023-05-20T02:09:52.234Z,0.00
2023-05-20T02:10:51.752Z,0.00
2023-05-20T02:11:51.643Z,0.00
2023-05-20T02:12:51.615Z,0.00
2023-05-20T02:13:51.633Z,0.00
2023-05-20T02:14:51.612Z,0.00
2023-05-20T02:15:51.590Z,0.00
2023-05-20T02:16:51.632Z,0.00
2023-05-20T02:17:51.584Z,0.00
2023-05-20T02:18:51.656Z,0.00
2023-05-20T02:19:51.590Z,0.00
2023-05-20T02:20:51.518Z,0.00
2023-05-20T02:21:51.689Z,0.00
2023-05-20T02:22:51.514Z,0.00
2023-05-20T02:23:51.528Z,0.00
2023-05-20T02:24:51.464Z,0.00
2023-05-20T02:25:51.538Z,0.00
2023-05-20T02:26:51.455Z,0.00
2023-05-20T02:27:51.457Z,0.00
2023-05-20T02:28:51.420Z,0.00
2023-05-20T02:29:51.439Z,0.00
2023-05-20T02:30:51.457Z,0.00
2023-05-20T02:31:51.604Z,0.00
2023-05-20T02:32:51.416Z,0.00
2023-05-20T02:33:51.462Z,0.00
2023-05-20T02:34:51.361Z,0.00
2023-05-20T02:35:51.465Z,0.00
2023-05-20T02:36:51.316Z,0.00
2023-05-20T02:37:51.370Z,0.00
2023-05-20T02:38:51.326Z,0.00
2023-05-20T02:39:51.331Z,0.00
2023-05-20T02:40:51.355Z,0.00
2023-05-20T02:41:51.307Z,0.00
2023-05-20T02:42:51.268Z,0.00
2023-05-20T02:43:51.412Z,0.00
2023-05-20T02:44:51.233Z,0.00
2023-05-20T02:45:51.261Z,0.00
2023-05-20T02:46:51.229Z,0.00
2023-05-20T02:47:51.334Z,0.00
2023-05-20T02:48:51.244Z,0.00
2023-05-20T02:49:51.227Z,0.00
2023-05-20T02:50:51.192Z,0.00
2023-05-20T02:51:51.189Z,0.00
2023-05-20T02:52:51.150Z,0.00
2023-05-20T02:53:51.161Z,0.00
2023-05-20T02:54:51.100Z,0.00
2023-05-20T02:55:51.232Z,0.00
2023-05-20T02:56:51.124Z,0.00
2023-05-20T02:57:51.114Z,0.00
2023-05-20T02:58:51.070Z,0.00
2023-05-20T02:59:51.081Z,0.00
2023-05-20T03:00:51.125Z,0.00
2023-05-20T03:01:51.083Z,0.00
2023-05-20T03:02:51.101Z,4.00
2023-05-20T03:03:51.100Z,4.00
2023-05-20T03:04:51.138Z,4.00
2023-05-20T03:05:50.989Z,0.00
2023-05-20T03:06:50.980Z,4.00
2023-05-20T03:07:50.990Z,4.00
2023-05-20T03:08:50.939Z,8.00
2023-05-20T03:09:50.970Z,4.00
2023-05-20T03:10:50.939Z,8.00
2023-05-20T03:11:50.937Z,8.00
2023-05-20T03:12:50.951Z,8.00
2023-05-20T03:13:50.900Z,12.00
2023-05-20T03:14:50.866Z,12.00
2023-05-20T03:15:51.000Z,12.00
2023-05-20T03:16:50.883Z,16.00
2023-05-20T03:17:50.990Z,16.00
2023-05-20T03:18:50.852Z,16.00
2023-05-20T03:19:50.831Z,20.00
2023-05-20T03:20:51.014Z,20.00
2023-05-20T03:21:50.810Z,24.00
2023-05-20T03:22:50.870Z,28.00
2023-05-20T03:23:50.805Z,32.00
2023-05-20T03:24:50.771Z,36.00
2023-05-20T03:25:50.780Z,36.00
2023-05-20T03:26:50.754Z,40.00
2023-05-20T03:27:50.738Z,44.00
2023-05-20T03:28:50.723Z,52.00
2023-05-20T03:29:50.727Z,56.00
2023-05-20T03:30:50.684Z,60.00
2023-05-20T03:31:51.252Z,68.00
2023-05-20T03:32:51.061Z,72.00
2023-05-20T03:33:50.668Z,76.00
2023-05-20T03:34:50.646Z,80.00
2023-05-20T03:35:50.660Z,84.00
2023-05-20T03:36:50.694Z,96.00
2023-05-20T03:37:50.643Z,104.00
2023-05-20T03:38:50.662Z,116.00
2023-05-20T03:39:50.601Z,124.00
2023-05-20T03:40:50.569Z,128.00
2023-05-20T03:41:50.574Z,136.00
2023-05-20T03:42:50.675Z,148.00
2023-05-20T03:43:50.575Z,152.00
2023-05-20T03:44:50.520Z,160.00
2023-05-20T03:45:50.597Z,168.00
2023-05-20T03:46:50.533Z,172.00
2023-05-20T03:47:50.567Z,184.00
2023-05-20T03:48:50.475Z,192.00
2023-05-20T03:49:50.553Z,196.00
2023-05-20T03:50:50.460Z,204.00
2023-05-20T03:51:50.479Z,216.00
2023-05-20T03:52:50.692Z,224.00
2023-05-20T03:53:50.590Z,228.00
2023-05-20T03:54:50.509Z,236.00
2023-05-20T03:55:50.419Z,252.00
2023-05-20T03:56:50.397Z,256.00
2023-05-20T03:57:50.445Z,264.00
2023-05-20T03:58:50.383Z,272.00
2023-05-20T03:59:50.473Z,284.00
2023-05-20T04:00:50.342Z,292.00
2023-05-20T04:01:50.388Z,308.00
2023-05-20T04:02:50.400Z,324.00
2023-05-20T04:03:50.526Z,340.00
2023-05-20T04:04:50.279Z,360.00
2023-05-20T04:05:50.294Z,376.00
2023-05-20T04:06:50.354Z,388.00
2023-05-20T04:07:50.285Z,384.00
2023-05-20T04:08:50.246Z,384.00
2023-05-20T04:09:50.299Z,384.00
2023-05-20T04:10:50.250Z,388.00
2023-05-20T04:11:50.218Z,396.00
2023-05-20T04:12:50.304Z,404.00
2023-05-20T04:13:50.252Z,416.00
2023-05-20T04:14:50.207Z,416.00
2023-05-20T04:15:50.240Z,428.00
2023-05-20T04:16:50.281Z,448.00
2023-05-20T04:17:50.233Z,476.00
2023-05-20T04:18:50.131Z,516.00
2023-05-20T04:19:50.179Z,588.00
2023-05-20T04:20:50.122Z,644.00
2023-05-20T04:21:50.140Z,712.00
2023-05-20T04:22:50.114Z,768.00
2023-05-20T04:23:50.098Z,792.00
2023-05-20T04:24:50.056Z,820.00
2023-05-20T04:25:50.166Z,828.00
2023-05-20T04:26:50.043Z,816.00
2023-05-20T04:27:50.065Z,836.00
2023-05-20T04:28:50.023Z,852.00
2023-05-20T04:29:50.262Z,892.00
2023-05-20T04:30:50.027Z,892.00
2023-05-20T04:31:50.111Z,904.00
2023-05-20T04:32:50.475Z,928.00
2023-05-20T04:33:49.964Z,936.00
2023-05-20T04:34:49.972Z,956.00
2023-05-20T04:35:49.924Z,984.00
2023-05-20T04:36:49.967Z,1040.00
2023-05-20T04:37:49.903Z,1060.00
2023-05-20T04:38:49.933Z,1056.00
2023-05-20T04:39:49.908Z,1076.00
2023-05-20T04:40:49.906Z,1096.00
2023-05-20T04:41:49.865Z,1108.00
2023-05-20T04:42:49.938Z,1128.00
2023-05-20T04:43:49.828Z,1156.00
2023-05-20T04:44:49.848Z,1144.00
2023-05-20T04:45:49.821Z,1140.00
2023-05-20T04:46:49.865Z,1160.00
2023-05-20T04:47:49.853Z,1172.00
2023-05-20T04:48:49.798Z,1208.00
2023-05-20T04:49:49.780Z,1224.00
2023-05-20T04:50:49.800Z,1244.00
2023-05-20T04:51:49.742Z,1232.00
2023-05-20T04:52:49.763Z,1220.00
2023-05-20T04:53:49.909Z,1248.00
2023-05-20T04:54:49.964Z,1276.00
2023-05-20T04:55:49.704Z,1308.00
2023-05-20T04:56:49.723Z,1320.00
2023-05-20T04:57:49.708Z,1340.00
2023-05-20T04:58:49.688Z,1336.00
2023-05-20T04:59:49.665Z,1324.00
2023-05-20T05:00:49.677Z,1316.00
2023-05-20T05:01:49.758Z,1296.00
2023-05-20T05:02:49.763Z,1292.00
2023-05-20T05:03:49.701Z,1300.00
2023-05-20T05:04:49.705Z,1320.00
2023-05-20T05:05:49.593Z,1356.00
2023-05-20T05:06:49.643Z,1416.00
2023-05-20T05:07:49.583Z,1444.00
2023-05-20T05:08:49.575Z,1476.00
2023-05-20T05:09:49.541Z,1496.00
2023-05-20T05:10:49.552Z,1504.00
2023-05-20T05:11:49.634Z,1560.00
2023-05-20T05:12:49.529Z,1636.00
2023-05-20T05:13:49.682Z,1644.00
2023-05-20T05:14:49.536Z,1648.00
2023-05-20T05:15:49.605Z,1716.00
2023-05-20T05:16:49.479Z,1756.00
2023-05-20T05:17:49.481Z,1800.00
2023-05-20T05:18:49.537Z,1876.00
2023-05-20T05:19:49.450Z,1944.00
2023-05-20T05:20:49.569Z,1928.00
2023-05-20T05:21:49.468Z,1964.00
2023-05-20T05:22:49.457Z,1996.00
2023-05-20T05:23:49.374Z,2064.00
2023-05-20T05:24:49.452Z,2096.00
2023-05-20T05:25:49.408Z,2112.00
2023-05-20T05:26:49.368Z,2088.00
2023-05-20T05:27:49.414Z,2136.00
2023-05-20T05:28:49.626Z,2124.00
2023-05-20T05:29:49.314Z,2180.00
2023-05-20T05:30:49.396Z,2216.00
2023-05-20T05:31:49.333Z,2244.00
2023-05-20T05:32:49.601Z,2284.00
2023-05-20T05:33:49.299Z,2292.00
2023-05-20T05:34:49.371Z,2308.00
2023-05-20T05:35:49.348Z,2316.00
2023-05-20T05:36:49.261Z,2392.00
2023-05-20T05:37:49.237Z,2428.00
2023-05-20T05:38:49.274Z,2464.00
2023-05-20T05:39:49.216Z,2448.00
2023-05-20T05:40:49.211Z,2452.00
2023-05-20T05:41:49.188Z,2460.00
2023-05-20T05:42:49.299Z,2440.00
2023-05-20T05:43:49.164Z,2448.00
2023-05-20T05:44:49.191Z,2460.00
2023-05-20T05:45:49.284Z,2520.00
2023-05-20T05:46:49.288Z,2604.00
2023-05-20T05:47:49.201Z,2576.00
2023-05-20T05:48:49.161Z,2520.00
2023-05-20T05:49:49.127Z,2496.00
2023-05-20T05:50:49.090Z,2492.00
2023-05-20T05:51:49.054Z,2468.00
2023-05-20T05:52:49.089Z,2468.00
2023-05-20T05:53:49.028Z,2556.00
2023-05-20T05:54:49.606Z,2636.00
2023-05-20T05:55:49.288Z,2652.00
2023-05-20T05:56:49.050Z,2620.00
2023-05-20T05:57:49.036Z,2596.00
2023-05-20T05:58:49.232Z,2620.00
2023-05-20T05:59:48.965Z,2684.00
2023-05-20T06:00:49.157Z,2768.00
2023-05-20T06:01:49.108Z,2860.00
2023-05-20T06:02:49.211Z,3012.00
2023-05-20T06:03:49.052Z,3124.00
2023-05-20T06:04:48.985Z,3180.00
2023-05-20T06:05:48.903Z,3220.00
2023-05-20T06:06:48.919Z,3292.00
2023-05-20T06:07:48.958Z,3368.00
2023-05-20T06:08:48.911Z,3448.00
2023-05-20T06:09:48.909Z,3556.00
2023-05-20T06:10:48.913Z,3608.00
2023-05-20T06:11:49.014Z,3700.00
2023-05-20T06:12:48.848Z,3744.00
2023-05-20T06:13:48.843Z,3784.00
2023-05-20T06:14:48.840Z,3764.00
2023-05-20T06:15:48.936Z,3740.00
2023-05-20T06:16:48.992Z,3728.00
2023-05-20T06:17:48.786Z,3748.00
2023-05-20T06:18:48.824Z,3808.00
2023-05-20T06:19:48.748Z,3828.00
2023-05-20T06:20:48.798Z,3960.00
2023-05-20T06:21:48.747Z,4008.00
2023-05-20T06:22:48.759Z,4104.00
2023-05-20T06:23:48.701Z,4136.00
2023-05-20T06:24:48.741Z,4096.00
2023-05-20T06:25:48.754Z,4252.00
2023-05-20T06:26:48.697Z,4356.00
2023-05-20T06:27:49.021Z,4420.00
2023-05-20T06:28:48.692Z,4592.00
2023-05-20T06:29:48.640Z,4548.00
2023-05-20T06:30:48.771Z,4644.00
2023-05-20T06:31:48.620Z,4620.00
2023-05-20T06:32:48.662Z,4612.00
2023-05-20T06:33:48.600Z,4484.00
2023-05-20T06:34:48.637Z,4388.00
2023-05-20T06:35:49.352Z,4404.00
2023-05-20T06:36:48.659Z,4348.00
2023-05-20T06:37:48.750Z,4444.00
2023-05-20T06:38:48.560Z,4612.00
2023-05-20T06:39:48.557Z,4708.00
2023-05-20T06:40:48.549Z,4632.00
2023-05-20T06:41:48.493Z,4692.00
2023-05-20T06:42:48.523Z,4724.00
2023-05-20T06:43:49.104Z,4716.00
2023-05-20T06:44:48.516Z,4660.00
2023-05-20T06:45:48.457Z,4636.00
2023-05-20T06:46:48.527Z,4700.00
2023-05-20T06:47:48.472Z,4736.00
2023-05-20T06:48:48.484Z,4760.00
2023-05-20T06:49:48.413Z,4884.00
2023-05-20T06:50:48.509Z,4952.00
2023-05-20T06:51:48.416Z,5188.00
2023-05-20T06:52:48.390Z,5256.00
2023-05-20T06:53:48.356Z,5240.00
2023-05-20T06:54:48.370Z,5220.00
2023-05-20T06:55:48.390Z,5148.00
2023-05-20T06:56:48.475Z,5064.00
2023-05-20T06:57:48.490Z,4988.00
2023-05-20T06:58:48.327Z,4848.00
2023-05-20T06:59:48.284Z,4696.00
2023-05-20T07:00:48.312Z,4640.00
2023-05-20T07:01:48.287Z,4600.00
2023-05-20T07:02:48.340Z,4712.00
2023-05-20T07:03:48.298Z,4832.00
2023-05-20T07:04:48.250Z,4992.00
2023-05-20T07:05:52.468Z,5012.00
2023-05-20T07:06:48.225Z,5048.00
2023-05-20T07:07:48.207Z,4960.00
2023-05-20T07:08:48.196Z,4900.00
2023-05-20T07:09:48.172Z,4628.00
2023-05-20T07:10:48.222Z,4356.00
2023-05-20T07:11:48.152Z,4148.00
2023-05-20T07:12:48.166Z,3980.00
2023-05-20T07:13:48.238Z,3904.00
2023-05-20T07:14:48.152Z,3860.00
2023-05-20T07:15:48.195Z,3788.00
2023-05-20T07:16:48.237Z,3776.00
2023-05-20T07:17:48.392Z,3608.00
2023-05-20T07:18:48.139Z,3472.00
2023-05-20T07:19:48.059Z,3232.00
2023-05-20T07:20:48.129Z,3356.00
2023-05-20T07:21:48.045Z,3588.00
2023-05-20T07:22:48.060Z,3852.00
2023-05-20T07:23:48.055Z,3892.00
2023-05-20T07:24:48.035Z,3840.00
2023-05-20T07:25:48.002Z,3868.00
2023-05-20T07:26:48.020Z,3868.00
2023-05-20T07:27:48.103Z,3960.00
2023-05-20T07:28:47.980Z,4232.00
2023-05-20T07:29:47.947Z,4632.00
2023-05-20T07:30:47.974Z,5024.00
2023-05-20T07:31:47.943Z,5228.00
2023-05-20T07:32:47.955Z,5356.00
2023-05-20T07:33:47.946Z,5468.00
2023-05-20T07:34:47.936Z,5512.00
2023-05-20T07:35:47.954Z,5600.00
2023-05-20T07:36:47.915Z,5620.00
2023-05-20T07:37:48.171Z,5624.00
2023-05-20T07:39:00.539Z,5752.00
2023-05-20T07:39:49.009Z,5780.00
2023-05-20T07:40:47.856Z,5664.00
2023-05-20T07:41:47.857Z,5584.00
2023-05-20T07:42:47.856Z,5616.00
2023-05-20T07:43:47.795Z,5660.00
2023-05-20T07:44:47.804Z,5728.00
2023-05-20T07:45:47.819Z,5660.00
2023-05-20T07:46:47.789Z,5412.00
2023-05-20T07:47:47.810Z,5232.00
2023-05-20T07:48:47.772Z,5184.00
2023-05-20T07:49:47.737Z,5228.00
2023-05-20T07:50:47.762Z,5348.00
2023-05-20T07:51:47.709Z,5372.00
2023-05-20T07:52:56.072Z,5332.00
2023-05-20T07:53:48.688Z,5312.00
2023-05-20T07:54:47.693Z,5452.00
2023-05-20T07:55:47.657Z,5524.00
2023-05-20T07:56:47.761Z,5456.00
2023-05-20T07:57:48.100Z,5424.00
2023-05-20T07:58:47.804Z,5344.00
2023-05-20T07:59:47.660Z,5328.00
2023-05-20T08:00:47.617Z,5376.00
2023-05-20T08:01:47.666Z,5456.00
2023-05-20T08:02:47.695Z,5552.00
2023-05-20T08:03:47.687Z,5620.00
2023-05-20T08:04:47.592Z,5668.00
2023-05-20T08:05:47.542Z,5752.00
2023-05-20T08:06:47.561Z,5828.00
2023-05-20T08:07:47.558Z,5864.00
2023-05-20T08:08:47.547Z,5928.00
2023-05-20T08:09:47.535Z,5948.00
2023-05-20T08:10:47.510Z,6000.00
2023-05-20T08:11:47.761Z,6164.00
2023-05-20T08:12:47.700Z,6268.00
2023-05-20T08:13:47.470Z,6312.00
2023-05-20T08:14:47.816Z,6392.00
2023-05-20T08:15:47.438Z,6388.00
2023-05-20T08:16:47.967Z,6396.00
2023-05-20T08:17:47.654Z,6480.00
2023-05-20T08:18:47.694Z,6576.00
2023-05-20T08:19:47.713Z,6672.00
2023-05-20T08:20:47.542Z,6732.00
2023-05-20T08:21:47.743Z,6716.00
2023-05-20T08:22:47.971Z,6660.00
2023-05-20T08:23:47.554Z,6732.00
2023-05-20T08:24:47.382Z,6844.00
2023-05-20T08:25:47.417Z,7072.00
2023-05-20T08:26:47.326Z,7232.00
2023-05-20T08:27:47.329Z,7240.00
2023-05-20T08:28:47.324Z,7172.00
2023-05-20T08:29:47.331Z,7164.00
2023-05-20T08:30:47.310Z,7172.00
2023-05-20T08:31:47.256Z,7248.00
2023-05-20T08:32:47.320Z,7300.00
2023-05-20T08:33:47.231Z,7392.00
2023-05-20T08:34:47.233Z,7380.00
2023-05-20T08:35:47.208Z,7232.00
2023-05-20T08:36:47.225Z,7100.00
2023-05-20T08:37:47.174Z,7036.00
2023-05-20T08:38:47.866Z,6956.00
2023-05-20T08:39:47.177Z,6908.00
2023-05-20T08:40:47.167Z,6900.00
2023-05-20T08:41:47.156Z,6908.00
2023-05-20T08:42:47.139Z,6944.00
2023-05-20T08:43:47.167Z,7028.00
2023-05-20T08:44:47.109Z,7140.00
2023-05-20T08:45:47.147Z,7192.00
2023-05-20T08:46:47.186Z,7196.00
2023-05-20T08:47:47.128Z,7160.00
2023-05-20T08:48:47.065Z,7112.00
2023-05-20T08:49:47.076Z,6920.00
2023-05-20T08:50:47.151Z,6964.00
2023-05-20T08:51:47.060Z,7028.00
2023-05-20T08:52:47.051Z,7024.00
2023-05-20T08:53:47.069Z,7060.00
2023-05-20T08:54:47.016Z,7156.00
2023-05-20T08:55:47.014Z,7144.00
2023-05-20T08:56:47.003Z,7240.00
2023-05-20T08:57:47.026Z,7304.00
2023-05-20T08:58:46.970Z,7404.00
2023-05-20T08:59:47.174Z,7472.00
2023-05-20T09:00:46.986Z,7492.00
2023-05-20T09:01:46.966Z,7452.00
2023-05-20T09:02:46.938Z,7292.00
2023-05-20T09:03:46.904Z,7052.00
2023-05-20T09:04:46.918Z,6956.00
2023-05-20T09:05:47.156Z,6884.00
2023-05-20T09:06:46.873Z,6908.00
2023-05-20T09:07:46.873Z,6828.00
2023-05-20T09:08:46.825Z,7180.00
2023-05-20T09:09:46.850Z,7508.00
2023-05-20T09:10:46.819Z,7596.00
2023-05-20T09:11:46.944Z,7852.00
2023-05-20T09:12:46.820Z,8104.00
2023-05-20T09:13:46.820Z,8308.00
2023-05-20T09:14:47.352Z,8240.00
2023-05-20T09:15:47.050Z,8496.00
2023-05-20T09:16:46.744Z,8688.00
2023-05-20T09:17:46.805Z,8796.00
2023-05-20T09:18:46.783Z,9104.00
2023-05-20T09:19:46.761Z,8944.00
2023-05-20T09:20:47.850Z,8844.00
2023-05-20T09:21:47.129Z,8652.00
2023-05-20T09:22:47.815Z,8692.00
2023-05-20T09:23:46.682Z,8664.00
2023-05-20T09:24:47.196Z,8552.00
2023-05-20T09:25:46.651Z,8556.00
2023-05-20T09:26:46.663Z,8732.00
2023-05-20T09:27:46.625Z,8936.00
2023-05-20T09:28:46.690Z,8652.00
2023-05-20T09:29:46.941Z,8672.00
2023-05-20T09:30:46.810Z,8556.00
2023-05-20T09:31:46.939Z,8428.00
2023-05-20T09:32:46.647Z,8424.00
2023-05-20T09:33:46.599Z,8048.00
2023-05-20T09:34:46.624Z,8308.00
2023-05-20T09:35:46.573Z,6976.00
2023-05-20T09:36:46.575Z,7272.00
2023-05-20T09:37:46.566Z,8168.00
2023-05-20T09:38:46.506Z,8604.00
2023-05-20T09:39:46.563Z,9116.00
2023-05-20T09:40:46.486Z,9108.00
2023-05-20T09:41:46.489Z,8572.00
2023-05-20T09:42:46.447Z,8448.00
2023-05-20T09:43:46.454Z,8572.00
2023-05-20T09:44:46.456Z,8096.00
2023-05-20T09:45:47.072Z,7984.00
2023-05-20T09:46:46.435Z,8156.00
2023-05-20T09:47:46.491Z,7308.00
2023-05-20T09:48:46.376Z,6888.00
2023-05-20T09:49:46.376Z,7156.00
2023-05-20T09:50:46.343Z,7236.00
2023-05-20T09:51:46.393Z,6968.00
2023-05-20T09:52:46.330Z,7496.00
2023-05-20T09:53:46.413Z,8104.00
2023-05-20T09:54:46.307Z,8820.00
2023-05-20T09:55:46.320Z,8800.00
2023-05-20T09:56:46.291Z,9080.00
2023-05-20T09:57:46.296Z,9128.00
2023-05-20T09:58:46.258Z,8520.00
2023-05-20T09:59:46.309Z,9012.00
2023-05-20T10:00:46.409Z,9180.00
2023-05-20T10:01:46.485Z,9096.00
2023-05-20T10:02:46.312Z,9368.00
2023-05-20T10:03:46.320Z,9528.00
2023-05-20T10:04:46.240Z,9388.00
2023-05-20T10:05:46.212Z,9168.00
2023-05-20T10:06:46.172Z,9680.00
2023-05-20T10:07:46.198Z,9376.00
2023-05-20T10:08:46.135Z,9500.00
2023-05-20T10:09:46.175Z,9908.00
2023-05-20T10:10:46.138Z,10140.00
2023-05-20T10:11:46.261Z,10204.00
2023-05-20T10:12:46.113Z,10180.00
2023-05-20T10:13:46.114Z,9856.00
2023-05-20T10:14:46.096Z,9512.00
2023-05-20T10:15:46.154Z,9188.00
2023-05-20T10:16:46.075Z,9168.00
2023-05-20T10:17:46.184Z,9256.00
2023-05-20T10:18:46.388Z,9516.00
2023-05-20T10:19:46.056Z,9112.00
2023-05-20T10:20:46.029Z,7708.00
2023-05-20T10:21:46.163Z,8112.00
2023-05-20T10:22:45.985Z,8000.00
2023-05-20T10:23:46.005Z,8644.00
2023-05-20T10:24:46.040Z,9164.00
2023-05-20T10:25:46.017Z,8992.00
2023-05-20T10:26:45.941Z,9252.00
2023-05-20T10:27:45.971Z,7764.00
2023-05-20T10:28:45.963Z,7204.00
2023-05-20T10:29:46.510Z,7812.00
2023-05-20T10:30:45.911Z,7676.00
2023-05-20T10:31:45.925Z,7640.00
2023-05-20T10:32:46.065Z,7216.00
2023-05-20T10:33:45.973Z,6692.00
2023-05-20T10:34:45.865Z,6532.00
2023-05-20T10:35:45.865Z,7144.00
2023-05-20T10:36:45.856Z,7188.00
2023-05-20T10:37:45.842Z,7492.00
2023-05-20T10:38:45.813Z,7924.00
2023-05-20T10:39:45.820Z,8232.00
2023-05-20T10:40:46.267Z,8380.00
2023-05-20T10:41:46.122Z,8372.00
2023-05-20T10:42:45.900Z,9616.00
2023-05-20T10:43:45.770Z,9260.00
2023-05-20T10:44:45.747Z,8000.00
2023-05-20T10:45:45.778Z,8704.00
2023-05-20T10:47:06.703Z,10012.00
2023-05-20T10:47:46.778Z,8556.00
2023-05-20T10:48:45.818Z,8096.00
2023-05-20T10:49:45.723Z,7488.00
2023-05-20T10:50:45.677Z,7864.00
2023-05-20T10:51:45.693Z,8888.00
2023-05-20T10:52:45.649Z,9044.00
2023-05-20T10:53:45.655Z,10160.00
2023-05-20T10:54:45.618Z,8988.00
2023-05-20T10:55:45.640Z,7972.00
2023-05-20T10:56:45.609Z,6856.00
2023-05-20T10:57:45.650Z,7356.00
2023-05-20T10:58:45.579Z,8120.00
2023-05-20T10:59:45.594Z,8104.00
2023-05-20T11:00:45.706Z,8360.00
2023-05-20T11:01:46.337Z,8484.00
2023-05-20T11:02:45.665Z,9044.00
2023-05-20T11:03:46.147Z,9136.00
2023-05-20T11:04:45.510Z,8876.00
2023-05-20T11:05:45.516Z,7908.00
2023-05-20T11:06:45.516Z,8020.00
2023-05-20T11:07:45.539Z,7864.00
2023-05-20T11:08:45.561Z,8152.00
2023-05-20T11:09:45.593Z,8636.00
2023-05-20T11:10:45.464Z,8060.00
2023-05-20T11:11:45.461Z,7732.00
2023-05-20T11:12:45.455Z,7856.00
2023-05-20T11:13:45.681Z,8204.00
2023-05-20T11:14:45.398Z,9312.00
2023-05-20T11:15:45.804Z,9484.00
2023-05-20T11:16:45.576Z,9520.00
2023-05-20T11:17:45.457Z,10196.00
2023-05-20T11:18:45.483Z,10668.00
2023-05-20T11:19:45.368Z,10576.00
2023-05-20T11:20:45.340Z,10864.00
2023-05-20T11:21:46.123Z,10824.00
2023-05-20T11:22:45.322Z,11188.00
2023-05-20T11:23:45.389Z,11340.00
2023-05-20T11:24:45.332Z,11328.00
2023-05-20T11:25:45.292Z,11676.00
2023-05-20T11:26:45.258Z,12140.00
2023-05-20T11:27:45.294Z,12468.00
2023-05-20T11:28:45.275Z,11792.00
2023-05-20T11:29:45.275Z,11572.00
2023-05-20T11:30:45.247Z,11272.00
2023-05-20T11:31:45.244Z,11492.00
2023-05-20T11:32:45.255Z,11640.00
2023-05-20T11:33:45.203Z,11900.00
2023-05-20T11:34:45.168Z,11928.00
2023-05-20T11:35:45.234Z,11504.00
2023-05-20T11:36:45.217Z,10872.00
2023-05-20T11:37:45.190Z,9700.00
2023-05-20T11:38:45.193Z,10040.00
2023-05-20T11:39:45.269Z,10416.00
2023-05-20T11:40:51.212Z,10872.00
2023-05-20T11:41:46.145Z,10776.00
2023-05-20T11:42:45.206Z,10380.00
2023-05-20T11:43:45.192Z,10316.00
2023-05-20T11:44:45.074Z,10532.00
2023-05-20T11:45:45.107Z,10132.00
2023-05-20T11:46:45.139Z,10116.00
2023-05-20T11:47:45.114Z,10644.00
2023-05-20T11:48:45.028Z,10576.00
2023-05-20T11:49:45.131Z,10460.00
2023-05-20T11:50:45.046Z,10856.00
2023-05-20T11:51:45.338Z,10564.00
2023-05-20T11:52:44.957Z,9564.00
2023-05-20T11:53:45.058Z,10348.00
2023-05-20T11:54:44.942Z,11136.00
2023-05-20T11:55:44.964Z,11488.00
2023-05-20T11:56:44.985Z,11312.00
2023-05-20T11:57:45.591Z,10320.00
2023-05-20T11:58:44.933Z,10080.00
2023-05-20T11:59:44.917Z,9868.00
2023-05-20T12:00:51.781Z,10764.00
2023-05-20T12:01:45.991Z,10964.00
2023-05-20T12:02:45.073Z,10344.00
2023-05-20T12:03:45.181Z,9840.00
2023-05-20T12:04:45.164Z,8884.00
2023-05-20T12:05:44.909Z,7784.00
2023-05-20T12:06:44.809Z,8652.00
2023-05-20T12:07:44.833Z,9328.00
2023-05-20T12:08:44.858Z,9384.00
2023-05-20T12:09:44.822Z,9288.00
2023-05-20T12:10:44.782Z,9444.00
2023-05-20T12:11:44.878Z,9552.00
2023-05-20T12:12:44.769Z,10268.00
2023-05-20T12:13:45.495Z,9388.00
2023-05-20T12:14:44.756Z,8876.00
2023-05-20T12:15:45.480Z,8900.00
2023-05-20T12:16:44.695Z,10032.00
2023-05-20T12:17:44.761Z,10220.00
2023-05-20T12:18:44.749Z,10300.00
2023-05-20T12:19:44.939Z,9036.00
2023-05-20T12:20:44.673Z,7384.00
2023-05-20T12:21:44.683Z,5956.00
2023-05-20T12:22:44.737Z,5192.00
2023-05-20T12:23:44.728Z,5584.00
2023-05-20T12:24:44.649Z,7432.00
2023-05-20T12:25:44.707Z,6684.00